Terminal Aerodrome Forecast
Issued by NWS

Home | Current Version | Previous Version | Text Only | Print | Product List | Glossary On
Versions: 1 2 3 4 5 6 7 8 9 10 11
000
FTUS45 KVEF 240536
TAFEED
TAF
KEED 240536Z 2406/2506 21012KT P6SM SKC
     FM240800 23006KT P6SM SKC
     FM241800 18010G18KT P6SM FEW250
     FM250100 21010KT P6SM SCT250=

USA.gov is the U.S. government's official web portal to all federal, state and local government web resources and services.